sensor_id;sensor_type;location;lat;lon;timestamp;temperature;humidity
35127;DHT22;21300;52.006;5.798;2022-09-09T00:00:47;19.10;70.70
35127;DHT22;21300;52.006;5.798;2022-09-09T00:03:19;19.20;70.80
35127;DHT22;21300;52.006;5.798;2022-09-09T00:05:59;19.10;70.70
35127;DHT22;21300;52.006;5.798;2022-09-09T00:08:58;19.10;70.70
35127;DHT22;21300;52.006;5.798;2022-09-09T00:11:36;19.10;70.80
35127;DHT22;21300;52.006;5.798;2022-09-09T00:14:13;19.10;70.80
35127;DHT22;21300;52.006;5.798;2022-09-09T00:16:45;19.10;70.80
35127;DHT22;21300;52.006;5.798;2022-09-09T00:19:24;19.10;70.90
35127;DHT22;21300;52.006;5.798;2022-09-09T00:22:15;19.10;70.90
35127;DHT22;21300;52.006;5.798;2022-09-09T00:24:45;19.10;70.90
35127;DHT22;21300;52.006;5.798;2022-09-09T00:32:37;19.00;70.80
35127;DHT22;21300;52.006;5.798;2022-09-09T00:35:14;19.00;70.90
35127;DHT22;21300;52.006;5.798;2022-09-09T00:37:42;19.00;70.90
35127;DHT22;21300;52.006;5.798;2022-09-09T00:40:22;19.00;71.00
35127;DHT22;21300;52.006;5.798;2022-09-09T00:42:54;19.00;71.00
35127;DHT22;21300;52.006;5.798;2022-09-09T00:48:13;18.90;71.00
35127;DHT22;21300;52.006;5.798;2022-09-09T00:50:50;18.90;70.90
35127;DHT22;21300;52.006;5.798;2022-09-09T00:56:22;18.90;71.00
35127;DHT22;21300;52.006;5.798;2022-09-09T00:59:22;18.90;71.00
35127;DHT22;21300;52.006;5.798;2022-09-09T01:01:51;18.90;71.00
35127;DHT22;21300;52.006;5.798;2022-09-09T01:04:24;18.90;71.10
35127;DHT22;21300;52.006;5.798;2022-09-09T01:07:00;18.90;71.10
35127;DHT22;21300;52.006;5.798;2022-09-09T01:09:57;18.80;71.10
35127;DHT22;21300;52.006;5.798;2022-09-09T01:12:44;18.90;71.20
35127;DHT22;21300;52.006;5.798;2022-09-09T01:15:22;18.80;71.10
35127;DHT22;21300;52.006;5.798;2022-09-09T01:18:11;18.80;71.10
35127;DHT22;21300;52.006;5.798;2022-09-09T01:28:51;18.70;71.20
35127;DHT22;21300;52.006;5.798;2022-09-09T01:31:27;18.70;71.20
35127;DHT22;21300;52.006;5.798;2022-09-09T01:33:54;18.70;71.10
35127;DHT22;21300;52.006;5.798;2022-09-09T01:36:35;18.70;71.10
35127;DHT22;21300;52.006;5.798;2022-09-09T01:39:03;18.70;71.10
35127;DHT22;21300;52.006;5.798;2022-09-09T01:41:28;18.70;71.20
35127;DHT22;21300;52.006;5.798;2022-09-09T01:43:55;18.70;71.20
35127;DHT22;21300;52.006;5.798;2022-09-09T01:46:22;18.70;71.20
35127;DHT22;21300;52.006;5.798;2022-09-09T01:48:50;18.70;71.20
35127;DHT22;21300;52.006;5.798;2022-09-09T01:51:16;18.60;71.20
35127;DHT22;21300;52.006;5.798;2022-09-09T01:53:43;18.60;71.20
35127;DHT22;21300;52.006;5.798;2022-09-09T01:59:04;18.60;71.30
35127;DHT22;21300;52.006;5.798;2022-09-09T02:04:10;18.50;71.20
35127;DHT22;21300;52.006;5.798;2022-09-09T02:06:40;18.50;71.20
35127;DHT22;21300;52.006;5.798;2022-09-09T02:09:07;18.50;71.30
35127;DHT22;21300;52.006;5.798;2022-09-09T02:11:35;18.50;71.30
35127;DHT22;21300;52.006;5.798;2022-09-09T02:14:11;18.50;71.30
35127;DHT22;21300;52.006;5.798;2022-09-09T02:19:22;18.50;71.30
35127;DHT22;21300;52.006;5.798;2022-09-09T02:21:55;18.50;71.30
35127;DHT22;21300;52.006;5.798;2022-09-09T02:27:08;18.40;71.20
35127;DHT22;21300;52.006;5.798;2022-09-09T02:29:41;18.40;71.30
35127;DHT22;21300;52.006;5.798;2022-09-09T02:32:11;18.40;71.30
35127;DHT22;21300;52.006;5.798;2022-09-09T02:34:42;18.40;71.30
35127;DHT22;21300;52.006;5.798;2022-09-09T02:37:09;18.40;71.40
35127;DHT22;21300;52.006;5.798;2022-09-09T02:39:36;18.30;71.30
35127;DHT22;21300;52.006;5.798;2022-09-09T02:42:03;18.30;71.40
35127;DHT22;21300;52.006;5.798;2022-09-09T02:44:29;18.30;71.40
35127;DHT22;21300;52.006;5.798;2022-09-09T02:53:08;18.30;71.40
35127;DHT22;21300;52.006;5.798;2022-09-09T02:55:48;18.20;71.40
35127;DHT22;21300;52.006;5.798;2022-09-09T02:58:17;18.30;71.40
35127;DHT22;21300;52.006;5.798;2022-09-09T03:00:45;18.20;71.40
35127;DHT22;21300;52.006;5.798;2022-09-09T03:03:11;18.20;71.40
35127;DHT22;21300;52.006;5.798;2022-09-09T03:05:37;18.20;71.50
35127;DHT22;21300;52.006;5.798;2022-09-09T03:08:05;18.20;71.40
35127;DHT22;21300;52.006;5.798;2022-09-09T03:10:31;18.20;71.50
35127;DHT22;21300;52.006;5.798;2022-09-09T03:12:57;18.10;71.40
35127;DHT22;21300;52.006;5.798;2022-09-09T03:15:23;18.10;71.50
35127;DHT22;21300;52.006;5.798;2022-09-09T03:17:49;18.10;71.50
35127;DHT22;21300;52.006;5.798;2022-09-09T03:20:14;18.10;71.50
35127;DHT22;21300;52.006;5.798;2022-09-09T03:22:40;18.10;71.50
35127;DHT22;21300;52.006;5.798;2022-09-09T03:25:06;18.10;71.50
35127;DHT22;21300;52.006;5.798;2022-09-09T03:27:32;18.10;71.50
35127;DHT22;21300;52.006;5.798;2022-09-09T03:29:58;18.00;71.50
35127;DHT22;21300;52.006;5.798;2022-09-09T03:32:24;18.00;71.50
35127;DHT22;21300;52.006;5.798;2022-09-09T03:34:51;18.00;71.50
35127;DHT22;21300;52.006;5.798;2022-09-09T03:37:20;18.00;71.50
35127;DHT22;21300;52.006;5.798;2022-09-09T03:39:46;18.00;71.60
35127;DHT22;21300;52.006;5.798;2022-09-09T03:42:13;18.00;71.60
35127;DHT22;21300;52.006;5.798;2022-09-09T03:44:45;18.00;71.60
35127;DHT22;21300;52.006;5.798;2022-09-09T03:47:20;18.00;71.60
35127;DHT22;21300;52.006;5.798;2022-09-09T03:49:47;18.00;71.60
35127;DHT22;21300;52.006;5.798;2022-09-09T03:52:14;17.90;71.60
35127;DHT22;21300;52.006;5.798;2022-09-09T03:54:40;17.90;71.60
35127;DHT22;21300;52.006;5.798;2022-09-09T03:57:06;17.90;71.60
35127;DHT22;21300;52.006;5.798;2022-09-09T03:59:32;17.90;71.60
35127;DHT22;21300;52.006;5.798;2022-09-09T04:01:58;17.90;71.70
35127;DHT22;21300;52.006;5.798;2022-09-09T04:04:25;17.90;71.70
35127;DHT22;21300;52.006;5.798;2022-09-09T04:06:52;17.90;71.70
35127;DHT22;21300;52.006;5.798;2022-09-09T04:09:18;17.90;71.70
35127;DHT22;21300;52.006;5.798;2022-09-09T04:11:43;17.90;71.70
35127;DHT22;21300;52.006;5.798;2022-09-09T04:14:09;17.90;71.80
35127;DHT22;21300;52.006;5.798;2022-09-09T04:16:35;17.90;71.80
35127;DHT22;21300;52.006;5.798;2022-09-09T04:19:03;17.80;71.80
35127;DHT22;21300;52.006;5.798;2022-09-09T04:21:33;17.80;71.80
35127;DHT22;21300;52.006;5.798;2022-09-09T04:23:58;17.80;71.80
35127;DHT22;21300;52.006;5.798;2022-09-09T04:26:25;17.80;71.90
35127;DHT22;21300;52.006;5.798;2022-09-09T04:28:50;17.80;71.80
35127;DHT22;21300;52.006;5.798;2022-09-09T04:31:19;17.80;71.90
35127;DHT22;21300;52.006;5.798;2022-09-09T04:33:47;17.80;71.90
35127;DHT22;21300;52.006;5.798;2022-09-09T04:36:13;17.70;71.80
35127;DHT22;21300;52.006;5.798;2022-09-09T04:38:39;17.70;71.80
35127;DHT22;21300;52.006;5.798;2022-09-09T04:41:05;17.70;71.80
35127;DHT22;21300;52.006;5.798;2022-09-09T04:43:31;17.80;71.90
35127;DHT22;21300;52.006;5.798;2022-09-09T04:45:57;17.70;71.90
35127;DHT22;21300;52.006;5.798;2022-09-09T04:48:24;17.70;71.80
35127;DHT22;21300;52.006;5.798;2022-09-09T04:50:59;17.70;71.90
35127;DHT22;21300;52.006;5.798;2022-09-09T04:53:25;17.70;71.90
35127;DHT22;21300;52.006;5.798;2022-09-09T04:55:53;17.70;71.90
35127;DHT22;21300;52.006;5.798;2022-09-09T04:58:26;17.70;71.90
35127;DHT22;21300;52.006;5.798;2022-09-09T05:00:52;17.70;71.90
35127;DHT22;21300;52.006;5.798;2022-09-09T05:03:17;17.70;71.90
35127;DHT22;21300;52.006;5.798;2022-09-09T05:05:44;17.70;72.00
35127;DHT22;21300;52.006;5.798;2022-09-09T05:08:10;17.60;71.90
35127;DHT22;21300;52.006;5.798;2022-09-09T05:10:38;17.60;72.10
35127;DHT22;21300;52.006;5.798;2022-09-09T05:13:04;17.60;72.00
35127;DHT22;21300;52.006;5.798;2022-09-09T05:15:30;17.60;72.00
35127;DHT22;21300;52.006;5.798;2022-09-09T05:17:58;17.60;72.10
35127;DHT22;21300;52.006;5.798;2022-09-09T05:20:24;17.60;72.00
35127;DHT22;21300;52.006;5.798;2022-09-09T05:22:56;17.60;72.00
35127;DHT22;21300;52.006;5.798;2022-09-09T05:25:22;17.60;72.00
35127;DHT22;21300;52.006;5.798;2022-09-09T05:27:48;17.60;72.00
35127;DHT22;21300;52.006;5.798;2022-09-09T05:30:15;17.60;72.10
35127;DHT22;21300;52.006;5.798;2022-09-09T05:32:40;17.60;72.10
35127;DHT22;21300;52.006;5.798;2022-09-09T05:35:06;17.50;72.10
35127;DHT22;21300;52.006;5.798;2022-09-09T05:37:32;17.60;72.10
35127;DHT22;21300;52.006;5.798;2022-09-09T05:39:57;17.50;72.10
35127;DHT22;21300;52.006;5.798;2022-09-09T05:42:23;17.50;72.10
35127;DHT22;21300;52.006;5.798;2022-09-09T05:44:49;17.50;72.10
35127;DHT22;21300;52.006;5.798;2022-09-09T05:47:16;17.50;72.20
35127;DHT22;21300;52.006;5.798;2022-09-09T05:49:42;17.50;72.20
35127;DHT22;21300;52.006;5.798;2022-09-09T05:52:08;17.50;72.20
35127;DHT22;21300;52.006;5.798;2022-09-09T05:54:35;17.50;72.20
35127;DHT22;21300;52.006;5.798;2022-09-09T05:57:02;17.50;72.10
35127;DHT22;21300;52.006;5.798;2022-09-09T05:59:27;17.60;72.10
35127;DHT22;21300;52.006;5.798;2022-09-09T06:01:53;17.50;72.20
35127;DHT22;21300;52.006;5.798;2022-09-09T06:04:19;17.60;72.10
35127;DHT22;21300;52.006;5.798;2022-09-09T06:06:47;17.50;72.10
35127;DHT22;21300;52.006;5.798;2022-09-09T06:09:14;17.50;73.80
35127;DHT22;21300;52.006;5.798;2022-09-09T06:11:41;17.40;75.60
35127;DHT22;21300;52.006;5.798;2022-09-09T06:14:07;17.40;75.90
35127;DHT22;21300;52.006;5.798;2022-09-09T06:16:34;17.40;75.60
35127;DHT22;21300;52.006;5.798;2022-09-09T06:19:00;17.40;74.90
35127;DHT22;21300;52.006;5.798;2022-09-09T06:21:31;17.50;74.70
35127;DHT22;21300;52.006;5.798;2022-09-09T06:23:58;17.50;74.40
35127;DHT22;21300;52.006;5.798;2022-09-09T06:26:26;17.40;74.10
35127;DHT22;21300;52.006;5.798;2022-09-09T06:28:53;17.40;74.10
35127;DHT22;21300;52.006;5.798;2022-09-09T06:31:21;17.50;73.90
35127;DHT22;21300;52.006;5.798;2022-09-09T06:33:49;17.50;73.60
35127;DHT22;21300;52.006;5.798;2022-09-09T06:36:17;17.50;73.60
35127;DHT22;21300;52.006;5.798;2022-09-09T06:38:44;17.30;78.20
35127;DHT22;21300;52.006;5.798;2022-09-09T06:41:11;16.90;82.10
35127;DHT22;21300;52.006;5.798;2022-09-09T06:43:37;16.70;83.90
35127;DHT22;21300;52.006;5.798;2022-09-09T06:46:12;16.50;85.20
35127;DHT22;21300;52.006;5.798;2022-09-09T06:48:41;16.50;85.10
35127;DHT22;21300;52.006;5.798;2022-09-09T06:51:10;16.70;84.70
35127;DHT22;21300;52.006;5.798;2022-09-09T06:53:38;16.90;82.90
35127;DHT22;21300;52.006;5.798;2022-09-09T06:58:45;17.10;81.30
35127;DHT22;21300;52.006;5.798;2022-09-09T07:01:13;17.10;80.50
35127;DHT22;21300;52.006;5.798;2022-09-09T07:03:42;17.10;80.80
35127;DHT22;21300;52.006;5.798;2022-09-09T07:06:14;17.10;81.60
35127;DHT22;21300;52.006;5.798;2022-09-09T07:08:42;17.10;82.50
35127;DHT22;21300;52.006;5.798;2022-09-09T07:11:09;17.00;83.50
35127;DHT22;21300;52.006;5.798;2022-09-09T07:13:35;17.00;84.30
35127;DHT22;21300;52.006;5.798;2022-09-09T07:16:12;17.00;84.30
35127;DHT22;21300;52.006;5.798;2022-09-09T07:18:39;17.00;84.40
35127;DHT22;21300;52.006;5.798;2022-09-09T07:21:05;17.10;84.00
35127;DHT22;21300;52.006;5.798;2022-09-09T07:23:32;17.20;83.00
35127;DHT22;21300;52.006;5.798;2022-09-09T07:25:58;17.20;82.40
35127;DHT22;21300;52.006;5.798;2022-09-09T07:28:25;17.20;82.00
35127;DHT22;21300;52.006;5.798;2022-09-09T07:30:59;17.20;81.50
35127;DHT22;21300;52.006;5.798;2022-09-09T07:33:26;17.30;81.50
35127;DHT22;21300;52.006;5.798;2022-09-09T07:35:52;17.30;81.30
35127;DHT22;21300;52.006;5.798;2022-09-09T07:38:19;17.30;81.00
35127;DHT22;21300;52.006;5.798;2022-09-09T07:40:45;17.40;80.40
35127;DHT22;21300;52.006;5.798;2022-09-09T07:43:11;17.40;80.20
35127;DHT22;21300;52.006;5.798;2022-09-09T07:45:37;17.40;79.80
35127;DHT22;21300;52.006;5.798;2022-09-09T07:48:03;17.40;79.60
35127;DHT22;21300;52.006;5.798;2022-09-09T07:50:30;17.40;79.40
35127;DHT22;21300;52.006;5.798;2022-09-09T07:52:56;17.40;79.10
35127;DHT22;21300;52.006;5.798;2022-09-09T07:55:22;17.40;79.10
35127;DHT22;21300;52.006;5.798;2022-09-09T07:57:53;17.40;78.90
35127;DHT22;21300;52.006;5.798;2022-09-09T08:00:19;17.40;78.90
35127;DHT22;21300;52.006;5.798;2022-09-09T08:02:47;17.50;78.60
35127;DHT22;21300;52.006;5.798;2022-09-09T08:05:13;17.50;78.50
35127;DHT22;21300;52.006;5.798;2022-09-09T08:07:40;17.50;78.50
35127;DHT22;21300;52.006;5.798;2022-09-09T08:10:06;17.50;78.30
35127;DHT22;21300;52.006;5.798;2022-09-09T08:12:32;17.50;78.10
35127;DHT22;21300;52.006;5.798;2022-09-09T08:14:58;17.50;78.20
35127;DHT22;21300;52.006;5.798;2022-09-09T08:17:24;17.60;77.90
35127;DHT22;21300;52.006;5.798;2022-09-09T08:19:49;17.50;77.90
35127;DHT22;21300;52.006;5.798;2022-09-09T08:22:15;17.60;78.60
35127;DHT22;21300;52.006;5.798;2022-09-09T08:24:41;17.60;77.70
35127;DHT22;21300;52.006;5.798;2022-09-09T08:27:07;17.60;77.50
35127;DHT22;21300;52.006;5.798;2022-09-09T08:29:32;17.60;77.40
35127;DHT22;21300;52.006;5.798;2022-09-09T08:31:58;17.60;77.40
35127;DHT22;21300;52.006;5.798;2022-09-09T08:34:25;17.60;77.40
35127;DHT22;21300;52.006;5.798;2022-09-09T08:36:53;17.60;77.30
35127;DHT22;21300;52.006;5.798;2022-09-09T08:39:20;17.60;77.30
35127;DHT22;21300;52.006;5.798;2022-09-09T08:47:25;17.70;77.00
35127;DHT22;21300;52.006;5.798;2022-09-09T08:55:52;17.70;76.60
35127;DHT22;21300;52.006;5.798;2022-09-09T08:58:23;17.70;76.60
35127;DHT22;21300;52.006;5.798;2022-09-09T09:09:12;17.80;76.40
35127;DHT22;21300;52.006;5.798;2022-09-09T09:14:24;17.80;76.30
35127;DHT22;21300;52.006;5.798;2022-09-09T09:17:02;17.80;76.40
35127;DHT22;21300;52.006;5.798;2022-09-09T09:19:33;17.80;76.10
35127;DHT22;21300;52.006;5.798;2022-09-09T09:22:32;17.80;76.00
35127;DHT22;21300;52.006;5.798;2022-09-09T09:25:23;17.90;76.10
35127;DHT22;21300;52.006;5.798;2022-09-09T09:30:26;17.90;76.00
35127;DHT22;21300;52.006;5.798;2022-09-09T09:33:21;17.90;75.90
35127;DHT22;21300;52.006;5.798;2022-09-09T09:35:51;17.90;75.70
35127;DHT22;21300;52.006;5.798;2022-09-09T09:38:17;17.90;75.70
35127;DHT22;21300;52.006;5.798;2022-09-09T09:40:57;17.90;75.60
35127;DHT22;21300;52.006;5.798;2022-09-09T09:43:31;17.90;75.50
35127;DHT22;21300;52.006;5.798;2022-09-09T09:45:58;17.90;75.40
35127;DHT22;21300;52.006;5.798;2022-09-09T09:48:25;18.00;75.50
35127;DHT22;21300;52.006;5.798;2022-09-09T09:51:08;18.00;75.60
35127;DHT22;21300;52.006;5.798;2022-09-09T09:53:37;18.00;75.40
35127;DHT22;21300;52.006;5.798;2022-09-09T09:56:09;18.00;76.40
35127;DHT22;21300;52.006;5.798;2022-09-09T10:01:04;17.90;77.90
35127;DHT22;21300;52.006;5.798;2022-09-09T10:03:31;18.00;77.50
35127;DHT22;21300;52.006;5.798;2022-09-09T10:05:58;18.00;77.30
35127;DHT22;21300;52.006;5.798;2022-09-09T10:08:25;18.00;77.10
35127;DHT22;21300;52.006;5.798;2022-09-09T10:16:43;18.10;76.50
35127;DHT22;21300;52.006;5.798;2022-09-09T10:19:16;18.10;76.30
35127;DHT22;21300;52.006;5.798;2022-09-09T10:25:00;18.00;77.40
35127;DHT22;21300;52.006;5.798;2022-09-09T10:36:20;18.10;76.60
35127;DHT22;21300;52.006;5.798;2022-09-09T10:38:48;18.20;76.40
35127;DHT22;21300;52.006;5.798;2022-09-09T10:41:19;18.20;76.30
35127;DHT22;21300;52.006;5.798;2022-09-09T10:54:44;18.20;75.70
35127;DHT22;21300;52.006;5.798;2022-09-09T10:57:39;18.20;75.80
35127;DHT22;21300;52.006;5.798;2022-09-09T11:00:06;18.20;75.70
35127;DHT22;21300;52.006;5.798;2022-09-09T11:02:34;18.20;75.60
35127;DHT22;21300;52.006;5.798;2022-09-09T11:05:08;18.20;75.50
35127;DHT22;21300;52.006;5.798;2022-09-09T11:07:44;18.20;75.40
35127;DHT22;21300;52.006;5.798;2022-09-09T11:10:29;18.20;75.40
35127;DHT22;21300;52.006;5.798;2022-09-09T11:13:04;18.30;75.40
35127;DHT22;21300;52.006;5.798;2022-09-09T11:15:42;18.30;75.40
35127;DHT22;21300;52.006;5.798;2022-09-09T11:18:15;18.30;75.30
35127;DHT22;21300;52.006;5.798;2022-09-09T11:20:44;18.30;75.30
35127;DHT22;21300;52.006;5.798;2022-09-09T11:23:15;18.30;75.30
35127;DHT22;21300;52.006;5.798;2022-09-09T11:25:47;18.30;75.20
35127;DHT22;21300;52.006;5.798;2022-09-09T11:31:19;18.30;75.20
35127;DHT22;21300;52.006;5.798;2022-09-09T11:36:27;18.20;82.80
35127;DHT22;21300;52.006;5.798;2022-09-09T11:42:20;18.30;80.70
35127;DHT22;21300;52.006;5.798;2022-09-09T11:44:46;18.30;80.50
35127;DHT22;21300;52.006;5.798;2022-09-09T11:47:29;18.40;80.50
35127;DHT22;21300;52.006;5.798;2022-09-09T11:50:41;18.40;80.00
35127;DHT22;21300;52.006;5.798;2022-09-09T11:52:46;18.40;79.80
35127;DHT22;21300;52.006;5.798;2022-09-09T11:55:31;18.40;79.30
35127;DHT22;21300;52.006;5.798;2022-09-09T11:57:58;18.50;79.10
35127;DHT22;21300;52.006;5.798;2022-09-09T12:00:35;18.50;78.60
35127;DHT22;21300;52.006;5.798;2022-09-09T12:03:03;18.50;78.60
35127;DHT22;21300;52.006;5.798;2022-09-09T12:05:41;18.50;78.40
35127;DHT22;21300;52.006;5.798;2022-09-09T12:08:10;18.60;78.30
35127;DHT22;21300;52.006;5.798;2022-09-09T12:10:39;18.60;78.10
35127;DHT22;21300;52.006;5.798;2022-09-09T12:13:22;18.60;78.70
35127;DHT22;21300;52.006;5.798;2022-09-09T12:15:53;18.60;77.80
35127;DHT22;21300;52.006;5.798;2022-09-09T12:18:44;18.60;77.80
35127;DHT22;21300;52.006;5.798;2022-09-09T12:23:55;18.70;77.60
35127;DHT22;21300;52.006;5.798;2022-09-09T12:32:01;18.70;77.20
35127;DHT22;21300;52.006;5.798;2022-09-09T12:37:04;18.60;80.80
35127;DHT22;21300;52.006;5.798;2022-09-09T12:39:38;18.60;80.60
35127;DHT22;21300;52.006;5.798;2022-09-09T12:42:21;18.60;80.00
35127;DHT22;21300;52.006;5.798;2022-09-09T12:45:17;18.60;79.80
35127;DHT22;21300;52.006;5.798;2022-09-09T12:50:29;18.80;79.10
35127;DHT22;21300;52.006;5.798;2022-09-09T12:53:02;18.80;79.10
35127;DHT22;21300;52.006;5.798;2022-09-09T12:55:31;18.80;79.50
35127;DHT22;21300;52.006;5.798;2022-09-09T12:57:59;18.80;79.00
35127;DHT22;21300;52.006;5.798;2022-09-09T13:00:26;18.80;78.80
35127;DHT22;21300;52.006;5.798;2022-09-09T13:02:56;18.80;78.70
35127;DHT22;21300;52.006;5.798;2022-09-09T13:05:25;18.80;78.60
35127;DHT22;21300;52.006;5.798;2022-09-09T13:07:52;18.80;78.40
35127;DHT22;21300;52.006;5.798;2022-09-09T13:10:29;18.80;78.30
35127;DHT22;21300;52.006;5.798;2022-09-09T13:12:56;18.80;78.90
35127;DHT22;21300;52.006;5.798;2022-09-09T13:15:25;18.80;78.80
35127;DHT22;21300;52.006;5.798;2022-09-09T13:18:02;18.90;78.70
35127;DHT22;21300;52.006;5.798;2022-09-09T13:20:30;18.90;78.60
35127;DHT22;21300;52.006;5.798;2022-09-09T13:22:56;18.90;78.70
35127;DHT22;21300;52.006;5.798;2022-09-09T13:25:27;18.90;78.50
35127;DHT22;21300;52.006;5.798;2022-09-09T13:28:05;18.90;78.60
35127;DHT22;21300;52.006;5.798;2022-09-09T13:30:31;18.90;81.00
35127;DHT22;21300;52.006;5.798;2022-09-09T13:35:56;18.90;81.80
35127;DHT22;21300;52.006;5.798;2022-09-09T13:38:23;18.90;81.30
35127;DHT22;21300;52.006;5.798;2022-09-09T13:41:08;19.00;80.20
35127;DHT22;21300;52.006;5.798;2022-09-09T13:43:52;19.00;79.80
35127;DHT22;21300;52.006;5.798;2022-09-09T13:53:58;19.00;79.00
35127;DHT22;21300;52.006;5.798;2022-09-09T13:56:24;19.00;79.70
35127;DHT22;21300;52.006;5.798;2022-09-09T13:58:50;19.00;79.60
35127;DHT22;21300;52.006;5.798;2022-09-09T14:01:15;19.00;79.20
35127;DHT22;21300;52.006;5.798;2022-09-09T14:03:41;19.00;78.90
35127;DHT22;21300;52.006;5.798;2022-09-09T14:06:07;19.00;79.00
35127;DHT22;21300;52.006;5.798;2022-09-09T14:08:32;19.10;79.10
35127;DHT22;21300;52.006;5.798;2022-09-09T14:11:03;19.10;79.10
35127;DHT22;21300;52.006;5.798;2022-09-09T14:13:29;19.10;79.10
35127;DHT22;21300;52.006;5.798;2022-09-09T14:15:54;19.00;78.70
35127;DHT22;21300;52.006;5.798;2022-09-09T14:18:20;19.10;78.70
35127;DHT22;21300;52.006;5.798;2022-09-09T14:20:47;19.00;78.60
35127;DHT22;21300;52.006;5.798;2022-09-09T14:23:13;19.10;78.60
35127;DHT22;21300;52.006;5.798;2022-09-09T14:25:41;19.10;78.50
35127;DHT22;21300;52.006;5.798;2022-09-09T14:28:09;19.10;78.40
35127;DHT22;21300;52.006;5.798;2022-09-09T14:30:36;19.10;78.40
35127;DHT22;21300;52.006;5.798;2022-09-09T14:33:02;19.10;78.40
35127;DHT22;21300;52.006;5.798;2022-09-09T14:35:27;19.10;78.20
35127;DHT22;21300;52.006;5.798;2022-09-09T14:37:53;19.10;78.10
35127;DHT22;21300;52.006;5.798;2022-09-09T14:40:18;19.10;78.10
35127;DHT22;21300;52.006;5.798;2022-09-09T14:42:44;19.10;78.10
35127;DHT22;21300;52.006;5.798;2022-09-09T14:45:10;19.10;78.60
35127;DHT22;21300;52.006;5.798;2022-09-09T14:47:36;19.10;78.70
35127;DHT22;21300;52.006;5.798;2022-09-09T14:50:04;19.10;78.60
35127;DHT22;21300;52.006;5.798;2022-09-09T14:52:30;19.10;78.70
35127;DHT22;21300;52.006;5.798;2022-09-09T14:54:56;19.10;78.40
35127;DHT22;21300;52.006;5.798;2022-09-09T14:57:22;19.10;78.20
35127;DHT22;21300;52.006;5.798;2022-09-09T14:59:48;19.10;78.20
35127;DHT22;21300;52.006;5.798;2022-09-09T15:02:16;19.10;78.10
35127;DHT22;21300;52.006;5.798;2022-09-09T15:04:41;19.20;78.20
35127;DHT22;21300;52.006;5.798;2022-09-09T15:07:07;19.10;78.00
35127;DHT22;21300;52.006;5.798;2022-09-09T15:09:33;19.10;78.50
35127;DHT22;21300;52.006;5.798;2022-09-09T15:11:58;19.00;82.00
35127;DHT22;21300;52.006;5.798;2022-09-09T15:14:24;19.10;81.50
35127;DHT22;21300;52.006;5.798;2022-09-09T15:16:51;19.10;81.00
35127;DHT22;21300;52.006;5.798;2022-09-09T15:19:17;19.10;80.50
35127;DHT22;21300;52.006;5.798;2022-09-09T15:21:42;19.20;80.10
35127;DHT22;21300;52.006;5.798;2022-09-09T15:24:08;19.20;79.90
35127;DHT22;21300;52.006;5.798;2022-09-09T15:26:34;19.20;79.70
35127;DHT22;21300;52.006;5.798;2022-09-09T15:29:01;19.20;79.50
35127;DHT22;21300;52.006;5.798;2022-09-09T15:31:30;19.20;79.10
35127;DHT22;21300;52.006;5.798;2022-09-09T15:34:00;19.20;79.00
35127;DHT22;21300;52.006;5.798;2022-09-09T15:36:41;19.20;79.00
35127;DHT22;21300;52.006;5.798;2022-09-09T15:39:09;19.20;79.10
35127;DHT22;21300;52.006;5.798;2022-09-09T15:41:38;19.20;79.00
35127;DHT22;21300;52.006;5.798;2022-09-09T15:44:04;19.20;78.80
35127;DHT22;21300;52.006;5.798;2022-09-09T15:46:50;19.20;78.80
35127;DHT22;21300;52.006;5.798;2022-09-09T15:49:22;19.20;78.80
35127;DHT22;21300;52.006;5.798;2022-09-09T15:51:58;19.20;78.70
35127;DHT22;21300;52.006;5.798;2022-09-09T15:54:25;19.20;78.90
35127;DHT22;21300;52.006;5.798;2022-09-09T15:56:54;19.20;78.70
35127;DHT22;21300;52.006;5.798;2022-09-09T15:59:21;19.10;78.30
35127;DHT22;21300;52.006;5.798;2022-09-09T16:01:48;19.20;78.40
35127;DHT22;21300;52.006;5.798;2022-09-09T16:04:17;19.10;77.90
35127;DHT22;21300;52.006;5.798;2022-09-09T16:06:52;19.20;78.30
35127;DHT22;21300;52.006;5.798;2022-09-09T16:09:19;19.10;78.10
35127;DHT22;21300;52.006;5.798;2022-09-09T16:11:45;19.10;77.90
35127;DHT22;21300;52.006;5.798;2022-09-09T16:14:12;19.10;78.00
35127;DHT22;21300;52.006;5.798;2022-09-09T16:16:57;19.10;78.00
35127;DHT22;21300;52.006;5.798;2022-09-09T16:19:23;19.20;77.80
35127;DHT22;21300;52.006;5.798;2022-09-09T16:21:49;19.20;77.70
35127;DHT22;21300;52.006;5.798;2022-09-09T16:24:18;19.10;77.50
35127;DHT22;21300;52.006;5.798;2022-09-09T16:26:49;19.20;77.40
35127;DHT22;21300;52.006;5.798;2022-09-09T16:29:16;19.10;77.20
35127;DHT22;21300;52.006;5.798;2022-09-09T16:31:43;19.20;77.20
35127;DHT22;21300;52.006;5.798;2022-09-09T16:34:09;19.20;77.30
35127;DHT22;21300;52.006;5.798;2022-09-09T16:36:36;19.20;77.40
35127;DHT22;21300;52.006;5.798;2022-09-09T16:39:07;19.10;77.10
35127;DHT22;21300;52.006;5.798;2022-09-09T16:41:35;19.20;77.10
35127;DHT22;21300;52.006;5.798;2022-09-09T16:44:03;19.20;77.20
35127;DHT22;21300;52.006;5.798;2022-09-09T16:46:31;19.20;77.00
35127;DHT22;21300;52.006;5.798;2022-09-09T16:48:58;19.20;77.10
35127;DHT22;21300;52.006;5.798;2022-09-09T16:51:27;19.20;76.90
35127;DHT22;21300;52.006;5.798;2022-09-09T16:53:54;19.10;77.00
35127;DHT22;21300;52.006;5.798;2022-09-09T16:56:23;19.10;77.00
35127;DHT22;21300;52.006;5.798;2022-09-09T16:58:52;19.10;76.90
35127;DHT22;21300;52.006;5.798;2022-09-09T17:01:19;19.20;76.90
35127;DHT22;21300;52.006;5.798;2022-09-09T17:03:44;19.10;76.70
35127;DHT22;21300;52.006;5.798;2022-09-09T17:06:11;19.10;76.90
35127;DHT22;21300;52.006;5.798;2022-09-09T17:08:41;19.10;76.90
35127;DHT22;21300;52.006;5.798;2022-09-09T17:11:14;19.10;76.90
35127;DHT22;21300;52.006;5.798;2022-09-09T17:13:42;19.10;76.90
35127;DHT22;21300;52.006;5.798;2022-09-09T17:16:08;19.10;76.90
35127;DHT22;21300;52.006;5.798;2022-09-09T17:18:35;19.10;76.90
35127;DHT22;21300;52.006;5.798;2022-09-09T17:21:09;19.10;76.80
35127;DHT22;21300;52.006;5.798;2022-09-09T17:23:35;19.10;76.90
35127;DHT22;21300;52.006;5.798;2022-09-09T17:26:10;19.10;76.90
35127;DHT22;21300;52.006;5.798;2022-09-09T17:28:38;19.10;76.90
35127;DHT22;21300;52.006;5.798;2022-09-09T17:31:09;19.10;76.80
35127;DHT22;21300;52.006;5.798;2022-09-09T17:33:37;19.10;77.00
35127;DHT22;21300;52.006;5.798;2022-09-09T17:36:09;19.00;76.80
35127;DHT22;21300;52.006;5.798;2022-09-09T17:38:37;19.10;76.90
35127;DHT22;21300;52.006;5.798;2022-09-09T17:44:06;19.00;77.00
35127;DHT22;21300;52.006;5.798;2022-09-09T17:46:37;19.00;77.10
35127;DHT22;21300;52.006;5.798;2022-09-09T17:49:07;19.00;77.10
35127;DHT22;21300;52.006;5.798;2022-09-09T17:51:34;19.00;77.20
35127;DHT22;21300;52.006;5.798;2022-09-09T17:54:03;19.00;77.20
35127;DHT22;21300;52.006;5.798;2022-09-09T17:56:31;19.00;77.20